Time,TemperatureF,DewpointF,PressureIn,WindDirection,WindDirectionDegrees,WindSpeedMPH,WindSpeedGustMPH,Humidity,HourlyPrecipIn,Conditions,Clouds,dailyrainin,SoftwareType,DateUTC
2013-02-19 00:02:00,35.0,28.0,30.18,North,5,0.0,0.0,76,0.00,,,0.00,,2013-02-19 05:02:00,
2013-02-19 00:22:00,34.0,28.0,30.18,North,5,0.0,0.0,77,0.00,,,0.00,,2013-02-19 05:22:00,
2013-02-19 00:32:00,34.0,28.0,30.17,North,5,0.0,0.0,78,0.00,,,0.00,,2013-02-19 05:32:00,
2013-02-19 00:52:00,34.0,28.0,30.17,North,5,0.0,0.0,78,0.00,,,0.00,,2013-02-19 05:52:00,
2013-02-19 01:03:00,33.0,27.0,30.16,North,5,0.0,0.0,79,0.00,,,0.00,,2013-02-19 06:03:00,
2013-02-19 01:22:00,33.0,28.0,30.16,North,5,0.0,0.0,80,0.00,,,0.00,,2013-02-19 06:22:00,
2013-02-19 01:32:00,33.0,28.0,30.16,North,5,0.0,1.0,80,0.00,,,0.00,,2013-02-19 06:32:00,
2013-02-19 01:52:00,33.0,28.0,30.14,North,5,0.0,0.0,80,0.00,,,0.00,,2013-02-19 06:52:00,
2013-02-19 02:02:00,32.0,27.0,30.13,North,5,0.0,0.0,80,0.00,,,0.00,,2013-02-19 07:02:00,
2013-02-19 02:12:00,32.0,27.0,30.13,North,5,0.0,0.0,80,0.00,,,0.00,,2013-02-19 07:12:00,
2013-02-19 02:22:00,32.0,27.0,30.12,North,5,0.0,0.0,81,0.00,,,0.00,,2013-02-19 07:22:00,
2013-02-19 02:32:00,32.0,27.0,30.11,North,5,1.0,3.0,80,0.00,,,0.00,,2013-02-19 07:32:00,
2013-02-19 02:52:00,35.0,27.0,30.11,North,5,1.0,6.0,73,0.00,,,0.00,,2013-02-19 07:52:00,
2013-02-19 03:02:00,37.0,27.0,30.09,North,5,2.0,4.0,67,0.00,,,0.00,,2013-02-19 08:02:00,
2013-02-19 03:11:00,37.0,27.0,30.09,North,5,2.0,4.0,67,0.00,,,0.00,,2013-02-19 08:11:00,
2013-02-19 03:22:00,38.0,27.0,30.11,North,5,0.0,4.0,64,0.00,,,0.00,,2013-02-19 08:22:00,
2013-02-19 03:32:00,38.0,29.0,30.09,North,5,0.0,0.0,69,0.00,,,0.00,,2013-02-19 08:32:00,
2013-02-19 03:42:00,38.0,29.0,30.09,North,5,0.0,0.0,69,0.00,,,0.00,,2013-02-19 08:42:00,
2013-02-19 03:52:00,38.0,29.0,30.09,North,5,0.0,0.0,69,0.00,,,0.00,,2013-02-19 08:52:00,
2013-02-19 04:02:00,38.0,27.0,30.09,North,5,0.0,2.0,64,0.00,,,0.00,,2013-02-19 09:02:00,
2013-02-19 04:11:00,38.0,27.0,30.09,North,5,0.0,2.0,64,0.00,,,0.00,,2013-02-19 09:11:00,
2013-02-19 04:22:00,39.0,27.0,30.10,North,5,0.0,4.0,63,0.00,,,0.00,,2013-02-19 09:22:00,
2013-02-19 04:32:00,39.0,30.0,30.08,North,5,1.0,2.0,69,0.00,,,0.00,,2013-02-19 09:32:00,
2013-02-19 04:42:00,39.0,30.0,30.08,North,5,1.0,2.0,69,0.00,,,0.00,,2013-02-19 09:42:00,
2013-02-19 04:52:00,39.0,29.0,30.07,North,5,0.0,0.0,68,0.00,,,0.00,,2013-02-19 09:52:00,
2013-02-19 05:02:00,38.0,28.0,30.07,North,5,0.0,1.0,68,0.00,,,0.00,,2013-02-19 10:02:00,
2013-02-19 05:11:00,38.0,28.0,30.07,North,5,0.0,1.0,68,0.00,,,0.00,,2013-02-19 10:11:00,
2013-02-19 05:22:00,38.0,28.0,30.07,North,5,0.0,0.0,67,0.00,,,0.00,,2013-02-19 10:22:00,
2013-02-19 05:32:00,38.0,28.0,30.08,North,5,0.0,2.0,68,0.00,,,0.00,,2013-02-19 10:32:00,
2013-02-19 05:42:00,38.0,28.0,30.08,North,5,0.0,2.0,68,0.00,,,0.00,,2013-02-19 10:42:00,
2013-02-19 05:52:00,38.0,29.0,30.07,North,5,0.0,0.0,71,0.00,,,0.00,,2013-02-19 10:52:00,
2013-02-19 06:01:00,38.0,30.0,30.07,North,5,0.0,0.0,72,0.00,,,0.00,,2013-02-19 11:01:00,
2013-02-19 06:11:00,38.0,30.0,30.07,North,5,0.0,0.0,72,0.00,,,0.00,,2013-02-19 11:11:00,
2013-02-19 06:22:00,38.0,33.0,30.06,North,5,0.0,1.0,81,0.02,,,0.02,,2013-02-19 11:22:00,
2013-02-19 06:32:00,38.0,34.0,30.06,North,5,0.0,1.0,85,0.06,,,0.06,,2013-02-19 11:32:00,
2013-02-19 06:42:00,38.0,34.0,30.06,North,5,0.0,1.0,85,0.06,,,0.06,,2013-02-19 11:42:00,
2013-02-19 06:52:00,37.0,34.0,30.05,North,5,0.0,0.0,88,0.08,,,0.08,,2013-02-19 11:52:00,
2013-02-19 07:02:00,37.0,34.0,30.05,North,5,0.0,0.0,89,0.10,,,0.10,,2013-02-19 12:02:00,
2013-02-19 07:12:00,37.0,34.0,30.05,North,5,0.0,0.0,89,0.10,,,0.10,,2013-02-19 12:12:00,
2013-02-19 07:22:00,37.0,35.0,30.06,North,5,0.0,2.0,91,0.10,,,0.13,,2013-02-19 12:22:00,
2013-02-19 07:32:00,37.0,35.0,30.05,North,5,0.0,3.0,91,0.09,,,0.15,,2013-02-19 12:32:00,
2013-02-19 07:42:00,37.0,35.0,30.05,North,5,0.0,3.0,91,0.09,,,0.15,,2013-02-19 12:42:00,
2013-02-19 07:52:00,37.0,35.0,30.05,North,5,0.0,0.0,92,0.10,,,0.19,,2013-02-19 12:52:00,
2013-02-19 08:02:00,37.0,35.0,30.05,North,5,0.0,3.0,92,0.12,,,0.22,,2013-02-19 13:02:00,
2013-02-19 08:11:00,37.0,35.0,30.05,North,5,0.0,3.0,92,0.12,,,0.22,,2013-02-19 13:11:00,
2013-02-19 08:22:00,37.0,35.0,30.04,North,5,0.0,2.0,93,0.11,,,0.24,,2013-02-19 13:22:00,
2013-02-19 08:32:00,37.0,35.0,30.03,North,5,0.0,1.0,93,0.10,,,0.25,,2013-02-19 13:32:00,
2013-02-19 08:42:00,37.0,35.0,30.03,North,5,0.0,1.0,93,0.10,,,0.25,,2013-02-19 13:42:00,
2013-02-19 08:52:00,37.0,35.0,30.03,North,5,0.0,1.0,93,0.10,,,0.25,,2013-02-19 13:52:00,
2013-02-19 09:02:00,37.0,35.0,30.02,North,5,1.0,2.0,94,0.03,,,0.25,,2013-02-19 14:02:00,
2013-02-19 09:12:00,37.0,35.0,30.02,North,5,1.0,2.0,94,0.03,,,0.25,,2013-02-19 14:12:00,
2013-02-19 09:22:00,37.0,35.0,30.02,North,5,0.0,2.0,94,0.02,,,0.26,,2013-02-19 14:22:00,
2013-02-19 09:33:00,37.0,35.0,30.01,North,5,1.0,3.0,94,0.02,,,0.27,,2013-02-19 14:33:00,
2013-02-19 09:42:00,37.0,35.0,30.01,North,5,1.0,3.0,94,0.02,,,0.27,,2013-02-19 14:42:00,
2013-02-19 09:52:00,37.0,36.0,30.01,North,5,2.0,5.0,95,0.02,,,0.27,,2013-02-19 14:52:00,
2013-02-19 10:02:00,38.0,37.0,30.00,North,5,3.0,6.0,95,0.02,,,0.27,,2013-02-19 15:02:00,
2013-02-19 10:11:00,38.0,37.0,30.00,North,5,3.0,6.0,95,0.02,,,0.27,,2013-02-19 15:11:00,
2013-02-19 10:22:00,38.0,37.0,29.99,North,5,1.0,6.0,95,0.01,,,0.27,,2013-02-19 15:22:00,
2013-02-19 10:32:00,38.0,37.0,29.99,North,5,2.0,6.0,95,0.00,,,0.27,,2013-02-19 15:32:00,
2013-02-19 10:42:00,38.0,37.0,29.99,North,5,2.0,6.0,95,0.00,,,0.27,,2013-02-19 15:42:00,
2013-02-19 10:52:00,38.0,37.0,29.99,North,5,1.0,7.0,95,0.00,,,0.27,,2013-02-19 15:52:00,
2013-02-19 11:02:00,39.0,38.0,29.99,North,5,2.0,6.0,95,0.00,,,0.27,,2013-02-19 16:02:00,
2013-02-19 11:11:00,39.0,38.0,29.99,North,5,2.0,6.0,95,0.00,,,0.27,,2013-02-19 16:11:00,
2013-02-19 11:22:00,39.0,38.0,29.99,North,5,3.0,7.0,95,0.00,,,0.27,,2013-02-19 16:22:00,
2013-02-19 11:32:00,39.0,38.0,29.99,North,5,1.0,5.0,95,0.00,,,0.27,,2013-02-19 16:32:00,
2013-02-19 11:42:00,39.0,38.0,29.99,North,5,1.0,5.0,95,0.00,,,0.27,,2013-02-19 16:42:00,
2013-02-19 11:52:00,40.0,39.0,29.98,North,5,4.0,8.0,95,0.00,,,0.27,,2013-02-19 16:52:00,
2013-02-19 12:01:00,40.0,39.0,29.98,North,5,2.0,9.0,95,0.00,,,0.27,,2013-02-19 17:01:00,
2013-02-19 12:11:00,40.0,39.0,29.98,North,5,2.0,9.0,95,0.00,,,0.27,,2013-02-19 17:11:00,
2013-02-19 12:21:00,41.0,40.0,29.96,North,5,5.0,8.0,95,0.00,,,0.27,,2013-02-19 17:21:00,
2013-02-19 12:32:00,41.0,39.0,29.96,North,5,3.0,9.0,93,0.00,,,0.27,,2013-02-19 17:32:00,
2013-02-19 12:42:00,41.0,39.0,29.96,North,5,3.0,9.0,93,0.00,,,0.27,,2013-02-19 17:42:00,
2013-02-19 12:52:00,42.0,40.0,29.95,North,5,1.0,8.0,93,0.00,,,0.27,,2013-02-19 17:52:00,
2013-02-19 13:02:00,42.0,40.0,29.94,North,5,2.0,10.0,92,0.00,,,0.27,,2013-02-19 18:02:00,
2013-02-19 13:11:00,42.0,40.0,29.94,North,5,2.0,10.0,92,0.00,,,0.27,,2013-02-19 18:11:00,
2013-02-19 13:21:00,42.0,40.0,29.94,North,5,2.0,13.0,92,0.00,,,0.27,,2013-02-19 18:21:00,
2013-02-19 13:32:00,42.0,40.0,29.93,North,5,1.0,7.0,91,0.00,,,0.27,,2013-02-19 18:32:00,
2013-02-19 13:42:00,42.0,40.0,29.93,North,5,1.0,7.0,91,0.00,,,0.27,,2013-02-19 18:42:00,
2013-02-19 13:52:00,43.0,41.0,29.92,North,5,4.0,10.0,91,0.00,,,0.27,,2013-02-19 18:52:00,
2013-02-19 14:01:00,43.0,41.0,29.91,North,5,1.0,9.0,91,0.00,,,0.27,,2013-02-19 19:01:00,
2013-02-19 14:11:00,43.0,41.0,29.91,North,5,1.0,9.0,91,0.00,,,0.27,,2013-02-19 19:11:00,
2013-02-19 14:21:00,43.0,41.0,29.91,North,5,2.0,10.0,91,0.00,,,0.27,,2013-02-19 19:21:00,
2013-02-19 14:32:00,44.0,42.0,29.90,North,5,3.0,8.0,91,0.00,,,0.27,,2013-02-19 19:32:00,
2013-02-19 14:42:00,44.0,42.0,29.90,North,5,3.0,8.0,91,0.00,,,0.27,,2013-02-19 19:42:00,
2013-02-19 14:52:00,44.0,42.0,29.89,North,5,5.0,10.0,91,0.00,,,0.27,,2013-02-19 19:52:00,
2013-02-19 15:02:00,46.0,43.0,29.88,North,5,5.0,11.0,89,0.00,,,0.27,,2013-02-19 20:02:00,
2013-02-19 15:12:00,46.0,43.0,29.88,North,5,5.0,11.0,89,0.00,,,0.27,,2013-02-19 20:12:00,
2013-02-19 15:22:00,48.0,44.0,29.88,North,5,3.0,7.0,85,0.00,,,0.27,,2013-02-19 20:22:00,
2013-02-19 15:32:00,48.0,43.0,29.88,North,5,2.0,9.0,82,0.00,,,0.27,,2013-02-19 20:32:00,
2013-02-19 15:42:00,48.0,43.0,29.88,North,5,2.0,9.0,82,0.00,,,0.27,,2013-02-19 20:42:00,
2013-02-19 15:52:00,48.0,43.0,29.88,North,5,2.0,9.0,82,0.00,,,0.27,,2013-02-19 20:52:00,
2013-02-19 16:02:00,51.0,45.0,29.87,North,5,2.0,10.0,80,0.00,,,0.27,,2013-02-19 21:02:00,
2013-02-19 16:11:00,51.0,45.0,29.87,North,5,2.0,10.0,80,0.00,,,0.27,,2013-02-19 21:11:00,
2013-02-19 16:21:00,52.0,44.0,29.86,North,5,3.0,10.0,75,0.00,,,0.27,,2013-02-19 21:21:00,
2013-02-19 16:32:00,53.0,45.0,29.87,North,5,4.0,10.0,73,0.00,,,0.27,,2013-02-19 21:32:00,
2013-02-19 16:42:00,53.0,45.0,29.87,North,5,4.0,10.0,73,0.00,,,0.27,,2013-02-19 21:42:00,
2013-02-19 16:51:00,53.0,44.0,29.87,North,5,4.0,13.0,71,0.00,,,0.27,,2013-02-19 21:51:00,
2013-02-19 17:02:00,53.0,44.0,29.87,North,5,3.0,13.0,72,0.00,,,0.27,,2013-02-19 22:02:00,
2013-02-19 17:11:00,53.0,44.0,29.87,North,5,3.0,13.0,72,0.00,,,0.27,,2013-02-19 22:11:00,
2013-02-19 17:22:00,53.0,44.0,29.88,North,5,3.0,7.0,71,0.00,,,0.27,,2013-02-19 22:22:00,
2013-02-19 17:32:00,53.0,44.0,29.88,North,5,3.0,7.0,71,0.00,,,0.27,,2013-02-19 22:32:00,
2013-02-19 17:42:00,53.0,44.0,29.88,North,5,3.0,7.0,71,0.00,,,0.27,,2013-02-19 22:42:00,
2013-02-19 17:52:00,53.0,44.0,29.88,North,5,1.0,6.0,71,0.00,,,0.27,,2013-02-19 22:52:00,
2013-02-19 18:01:00,52.0,43.0,29.88,North,5,0.0,5.0,72,0.00,,,0.27,,2013-02-19 23:01:00,
2013-02-19 18:11:00,52.0,43.0,29.88,North,5,0.0,5.0,72,0.00,,,0.27,,2013-02-19 23:11:00,
2013-02-19 18:21:00,51.0,43.0,29.89,North,5,0.0,4.0,74,0.00,,,0.27,,2013-02-19 23:21:00,
2013-02-19 18:32:00,49.0,42.0,29.91,North,5,0.0,3.0,77,0.00,,,0.27,,2013-02-19 23:32:00,
2013-02-19 18:42:00,49.0,42.0,29.91,North,5,0.0,3.0,77,0.00,,,0.27,,2013-02-19 23:42:00,
2013-02-19 18:52:00,48.0,33.0,29.91,North,5,2.0,8.0,56,0.00,,,0.27,,2013-02-19 23:52:00,
2013-02-19 19:02:00,48.0,30.0,29.92,North,5,2.0,7.0,49,0.00,,,0.27,,2013-02-20 00:02:00,
2013-02-19 19:22:00,48.0,30.0,29.93,North,5,2.0,9.0,50,0.00,,,0.27,,2013-02-20 00:22:00,
2013-02-19 19:32:00,48.0,34.0,29.95,North,5,1.0,4.0,58,0.00,,,0.27,,2013-02-20 00:32:00,
2013-02-19 19:42:00,48.0,34.0,29.95,North,5,1.0,4.0,58,0.00,,,0.27,,2013-02-20 00:42:00,
2013-02-19 19:52:00,47.0,23.0,29.95,North,5,3.0,15.0,39,0.00,,,0.27,,2013-02-20 00:52:00,
2013-02-19 20:02:00,48.0,20.0,29.96,North,5,3.0,12.0,33,0.00,,,0.27,,2013-02-20 01:02:00,
2013-02-19 20:11:00,48.0,20.0,29.96,North,5,3.0,12.0,33,0.00,,,0.27,,2013-02-20 01:11:00,
2013-02-19 20:22:00,48.0,20.0,29.96,North,5,5.0,12.0,32,0.00,,,0.27,,2013-02-20 01:22:00,
2013-02-19 20:32:00,48.0,20.0,29.96,North,5,6.0,16.0,32,0.00,,,0.27,,2013-02-20 01:32:00,
2013-02-19 20:42:00,48.0,20.0,29.96,North,5,6.0,16.0,32,0.00,,,0.27,,2013-02-20 01:42:00,
2013-02-19 20:52:00,47.0,19.0,29.97,North,5,6.0,15.0,32,0.00,,,0.27,,2013-02-20 01:52:00,
2013-02-19 21:02:00,47.0,20.0,29.98,North,5,2.0,8.0,34,0.00,,,0.27,,2013-02-20 02:02:00,
2013-02-19 21:11:00,47.0,20.0,29.98,North,5,2.0,8.0,34,0.00,,,0.27,,2013-02-20 02:11:00,
2013-02-19 21:22:00,46.0,19.0,29.98,North,5,1.0,4.0,33,0.00,,,0.27,,2013-02-20 02:22:00,
2013-02-19 21:32:00,46.0,19.0,29.98,North,5,1.0,4.0,33,0.00,,,0.27,,2013-02-20 02:32:00,
2013-02-19 21:42:00,46.0,19.0,29.98,North,5,1.0,4.0,33,0.00,,,0.27,,2013-02-20 02:42:00,
2013-02-19 21:52:00,45.0,18.0,29.98,North,5,3.0,9.0,34,0.00,,,0.27,,2013-02-20 02:52:00,
2013-02-19 22:02:00,45.0,22.0,29.99,North,5,0.0,7.0,40,0.00,,,0.27,,2013-02-20 03:02:00,
2013-02-19 22:12:00,45.0,22.0,29.99,North,5,0.0,7.0,40,0.00,,,0.27,,2013-02-20 03:12:00,
2013-02-19 22:22:00,43.0,20.0,29.99,North,5,1.0,6.0,40,0.00,,,0.27,,2013-02-20 03:22:00,
2013-02-19 22:32:00,42.0,18.0,30.00,North,5,1.0,5.0,37,0.00,,,0.27,,2013-02-20 03:32:00,
2013-02-19 22:42:00,42.0,18.0,30.00,North,5,1.0,5.0,37,0.00,,,0.27,,2013-02-20 03:42:00,
2013-02-19 22:52:00,41.0,23.0,30.00,North,5,0.0,6.0,48,0.00,,,0.27,,2013-02-20 03:52:00,
2013-02-19 23:01:00,40.0,23.0,30.00,North,5,1.0,6.0,50,0.00,,,0.27,,2013-02-20 04:01:00,
2013-02-19 23:11:00,40.0,23.0,30.00,North,5,1.0,6.0,50,0.00,,,0.27,,2013-02-20 04:11:00,
2013-02-19 23:21:00,39.0,22.0,30.00,North,5,0.0,3.0,50,0.00,,,0.27,,2013-02-20 04:21:00,
2013-02-19 23:32:00,38.0,24.0,30.00,North,5,0.0,4.0,56,0.00,,,0.27,,2013-02-20 04:32:00,
2013-02-19 23:42:00,38.0,24.0,30.00,North,5,0.0,4.0,56,0.00,,,0.27,,2013-02-20 04:42:00,
2013-02-19 23:52:00,37.0,26.0,30.01,North,5,0.0,0.0,63,0.00,,,0.27,,2013-02-20 04:52:00,